Flight Track Log - Related Links

Times and Time Zones

All times are in EDT time to prevent confusion due to time zone crossing. See the N9009Y flight status page for this flight to view local times or setup timezone preferences in your user account.

Time Position Orientation Groundspeed Altitude Reporting Facility
EDT Latitude Longitude Course Direction KTS MPH feet Rate Location/Type
Mon 11:05:03 AM 28.9667 -80.8667 139° Southeast 123 142 2,100  Level Orlando TRACON
Mon 11:06:09 AM 28.9333 -80.8333 139° Southeast 123 142 2,300 143 Climbing Orlando TRACON
Mon 11:07:09 AM 28.9167 -80.8167 139° Southeast 117 135 2,400 100 Climbing Orlando TRACON
Mon 11:08:09 AM 28.8833 -80.8000 156° South 113 130 2,500 100 Climbing Orlando TRACON
Mon 11:09:09 AM 28.8500 -80.8000 180° South 121 139 2,600 150 Climbing Orlando TRACON
Mon 11:10:09 AM 28.8167 -80.7833 156° South 128 147 2,800 50 Climbing Orlando TRACON
Mon 11:11:09 AM 28.7833 -80.7667 156° South 145 167 2,700 -99 Descending Orlando TRACON
Mon 11:12:10 AM 28.7333 -80.7500 164° South 144 166 2,600 -50 Descending Orlando TRACON
Mon 11:13:09 AM 28.7000 -80.7500 180° South 141 162 2,600 -50 Level Orlando TRACON
Mon 11:14:09 AM 28.6667 -80.7333 156° South 141 162 2,500 -50 Descending Orlando TRACON
Mon 11:15:09 AM 28.6333 -80.7167 156° South 132 152 2,500  Level Orlando TRACON
Mon 11:16:09 AM 28.6000 -80.7167 180° South 135 155 2,500  Level Orlando TRACON
Mon 11:17:15 AM 28.5500 -80.7000 164° South 134 154 2,500  Level Orlando TRACON
Mon 11:18:16 AM 28.5167 -80.7000 180° South 134 154 2,500  Level Orlando TRACON
Mon 11:19:16 AM 28.4833 -80.6833 156° South 134 154 2,500 50 Level Orlando TRACON
Mon 11:20:16 AM 28.4333 -80.6833 180° South 136 157 2,600 53 Climbing Orlando TRACON
Mon 11:21:10 AM 28.4000 -80.6667 156° South 132 152 2,600  Level Orlando TRACON
Mon 11:22:16 AM 28.3667 -80.6667 180° South 135 155 2,600  Level Orlando TRACON
Mon 11:23:16 AM 28.3333 -80.6667 180° South 133 153 2,600  Level Orlando TRACON
Mon 11:24:16 AM 28.3000 -80.6500 156° South 134 154 2,600  Level Orlando TRACON
Mon 11:25:10 AM 28.2667 -80.6500 180° South 138 159 2,600 -53 Level Orlando TRACON
Mon 11:26:10 AM 28.2167 -80.6333 164° South 139 160 2,500 -50 Descending Orlando TRACON
Mon 11:27:10 AM 28.1833 -80.6333 180° South 139 160 2,500  Level Orlando TRACON
Mon 11:27:58 AM 28.1544 -80.6217 160° South 137 158 2,500  Level Miami Center
Mon 11:29:01 AM 28.1144 -80.6106 166° South 139 160 2,500  Level Miami Center
Mon 11:30:03 AM 28.0786 -80.6017 168° South 139 160 2,500  Level Miami Center
Mon 11:31:05 AM 28.0394 -80.5894 165° South 139 160 2,500  Level Miami Center
Mon 11:32:07 AM 28.0014 -80.5814 169° South 137 158 2,500  Level Miami Center
Mon 11:33:10 AM 27.9636 -80.5758 173° South 134 154 2,500  Level Miami Center
Mon 11:34:12 AM 27.9247 -80.5669 169° South 134 154 2,500  Level Miami Center
Mon 11:35:14 AM 27.8861 -80.5592 170° South 134 154 2,500  Level Miami Center
Mon 11:36:17 AM 27.8483 -80.5506 169° South 134 154 2,500 48 Level Miami Center
Mon 11:37:19 AM 27.8103 -80.5425 169° South 133 153 2,600 48 Climbing Miami Center
Mon 11:38:21 AM 27.7756 -80.5339 168° South 133 153 2,600 48 Level Miami Center
Mon 11:39:23 AM 27.7375 -80.5244 168° South 133 153 2,700 192 Climbing Miami Center
Mon 11:40:26 AM 27.7014 -80.5139 165° South 131 151 3,000 144 Climbing Miami Center
Mon 11:41:28 AM 27.6647 -80.5064 170° South 128 147 3,000  Level Miami Center
Mon 11:42:30 AM 27.6264 -80.4939 164° South 134 154 3,000 48 Level Miami Center
Mon 11:43:32 AM 27.5883 -80.4875 172° South 134 154 3,100 48 Climbing Miami Center
Mon 11:44:35 AM 27.5500 -80.4778 167° South 134 154 3,100 96 Level Miami Center
Mon 11:45:37 AM 27.5125 -80.4683 167° South 134 154 3,300 97 Climbing Miami Center
Mon 11:46:39 AM 27.4767 -80.4614 170° South 134 154 3,300 48 Level Miami Center
Mon 11:47:41 AM 27.4386 -80.4600 178° South 133 153 3,400 240 Climbing Miami Center
Mon 11:48:44 AM 27.4042 -80.4408 154° Southeast 132 152 3,800 192 Climbing Miami Center
Mon 11:49:46 AM 27.3672 -80.4247 159° South 136 157 3,800  Level Miami Center
Mon 11:50:48 AM 27.3275 -80.4094 161° South 140 161 3,800  Level Miami Center
Mon 11:51:50 AM 27.2861 -80.4014 170° South 141 162 3,800  Level Miami Center
Mon 11:52:52 AM 27.2472 -80.3822 156° South 150 173 3,800  Level Miami Center
Mon 11:53:55 AM 27.2103 -80.3608 153° Southeast 148 170 3,800 -192 Level Miami Center
Mon 11:54:57 AM 27.1728 -80.3344 148° Southeast 165 190 3,400 -435 Descending Miami Center
Mon 11:55:59 AM 27.1289 -80.3133 157° South 165 190 2,900 -432 Descending Miami Center
Mon 11:57:02 AM 27.0858 -80.2942 158° South 162 186 2,500 -240 Descending Miami Center
Mon 11:58:04 AM 27.0447 -80.2803 163° South 150 173 2,400  Descending Miami Center
Mon 11:59:06 AM 27.0067 -80.2667 162° South 142 163 2,500 145 Climbing Miami Center
Mon 12:00:08 PM 26.9694 -80.2478 156° South 141 162 2,700 48 Climbing Miami Center
Mon 12:01:11 PM 26.9308 -80.2375 167° South 138 159 2,600 -96 Descending Miami Center
Mon 12:02:13 PM 26.8967 -80.2081 142° Southeast 150 173 2,500  Descending Miami Center
Mon 12:03:15 PM 26.8692 -80.1678 127° Southeast 154 177 2,600 48 Climbing Miami Center
Mon 12:04:17 PM 26.8433 -80.1339 131° Southeast 153 176 2,600  Level Miami Center
Mon 12:05:20 PM 26.8164 -80.0947 128° Southeast 153 176 2,600  Level Miami Center
Mon 12:06:22 PM 26.7753 -80.0864 170° South 149 171 2,600 -48 Level Miami Center
Mon 12:07:24 PM 26.7328 -80.0892 183° South 144 166 2,500  Descending Miami Center
Mon 12:08:26 PM 26.6917 -80.0936 186° South 147 169 2,600 48 Climbing Miami Center
Mon 12:09:28 PM 26.6475 -80.0969 184° South 148 170 2,600 -96 Level Miami Center
Mon 12:10:31 PM 26.6056 -80.1039 188° South 150 173 2,400 -192 Descending Miami Center
Mon 12:11:33 PM 26.5617 -80.1164 194° South 151 174 2,200 -242 Descending Miami Center
Mon 12:12:35 PM 26.5222 -80.1294 196° South 147 169 1,900 -145 Descending Miami Center
Mon 12:13:37 PM 26.4861 -80.1472 204° Southwest 135 155 1,900  Level Miami Center
Mon 12:14:39 PM 26.4550 -80.1664 209° Southwest 130 150 1,900  Level Miami Center
Mon 12:15:42 PM 26.4275 -80.1842 210° Southwest 130 150 1,900  Level Miami Center
Mon 12:17:00 PM 26.3679 -80.1600 180° South  Level Estimated
Mon 12:24:00 PM 26.2471 -80.1111 180° South  Level Estimated

Login

Don't have an account? Register now (free) for customized features, flight alerts, and more!